To NAV CANADA Home Page Login to a new session Search on AWWS site Disclaimer Vers la page française équivalente Tips FAQ What's new on the site To the Forecasts and Observations / NOTAM section To "File a Flight Plan" website Publications and other links Update of the User's profile FIC Telephone Numbers My Weather Data Folder Route Weather Data Regional Weather Data Local Weather Data To the Forecasts and Observations / NOTAM section
Request Generated 03/19/2019 at 23:21:08 UTC . Weather information available at that time is displayed.

METAR/TAF

MONCTON/GREATER MONCTON ROMEO LEBLANC INTL/NB    

METAR CYQM 192300Z 28007KT 15SM BKN068 M02/M13 A3024 RMK AC7 SLP248=
METAR CYQM 192200Z 26008KT 15SM BKN068 M01/M13 A3023 RMK AC7 SLP242=
METAR CYQM 192100Z 27011KT 15SM BKN063 M01/M13 A3021 RMK SC7 SLP238=

TAF AMD CYQM 191743Z 1918/2018 28010G20KT P6SM SCT040 TEMPO 1918/2001
BKN040
FM200100 VRB03KT P6SM FEW040
FM200600 25010KT P6SM SKC
RMK NXT FCST BY 200000Z=
Your time UTC time
Weather data provided by Environment Canada and NAV CANADA